Terminal Aerodrome Forecast
Issued by NWS

Home | Current Version | Previous Version | Text Only | Print | Product List | Glossary On
Versions: 1 2 3 4 5 6 7 8 9 10 11 12 13 14 15 16 17 18 19 20 21 22 23 24 25
000
FTUS41 KBOX 271123
TAFACK
TAF
KACK 271123Z 2712/2812 20006KT 1/4SM FG OVC001
     FM271300 21007KT 4SM BR SCT001
     FM271330 22008KT P6SM FEW250
     FM280500 25006KT P6SM BKN050
     FM280600 25006KT 3SM BR BKN050
     FM280900 30009KT 3SM BR BKN050=

USA.gov is the U.S. government's official web portal to all federal, state and local government web resources and services.